Milford, Virginia
Current Conditions -  °F | °C
As of 9:35 AM on Thursday 30 Oct 2014 (Local Time) from KEZF Reporting Station
Overcast Overcast  
Wind Chill: 50°   Ceiling: 6500
Heat Index: 50°   Visibility: 10mi
Dew Point: 42°   Wind: 7mph
Humidity: 74%   Direction: 350°N
Pressure: 30.07"   Gusts: NA
Location:  38.02°N, 77.37°W
Report Text: KEZF 301335Z AUTO 35006KT 10SM OVC065 10/06 A3007 RMK AO2 T01000056
Loading
Personal Weather Stations






























Interactive Weather Map
Tropical Storm Tracking
New forecast layout! Learn more

10-Day Weather Forecast

Advertisements
Track Severe Weather on mobile